Time;durP1;ratioP1;P1;durP2;ratioP2;P2;SDS_P1;SDS_P2;PMS_P1;PMS_P2;Temp;Humidity;BMP_temperature;BMP_pressure;BME280_temperature;BME280_humidity;BME280_pressure;Samples;Min_cycle;Max_cycle;Signal;HPM_P1;HPM_P2
2022/01/09 00:00:27;;;;;;;5.05;4.47;;;6.10;90.30;;;;;;5000424;28;20109;-88
2022/01/09 00:02:53;;;;;;;4.20;3.80;;;6.10;90.30;;;;;;4996244;28;20057;-88
2022/01/09 00:05:20;;;;;;;3.42;3.10;;;6.10;90.30;;;;;;4980799;28;20065;-88
2022/01/09 00:07:46;;;;;;;3.92;3.40;;;6.10;90.30;;;;;;4980278;28;20030;-88
2022/01/09 00:10:12;;;;;;;4.80;4.10;;;6.10;90.40;;;;;;4965583;28;20489;-93
2022/01/09 00:12:38;;;;;;;5.53;4.00;;;6.10;90.40;;;;;;4999011;28;20032;-92
2022/01/09 00:15:05;;;;;;;4.72;4.32;;;6.10;90.40;;;;;;5006143;28;20027;-93
2022/01/09 00:17:31;;;;;;;4.57;4.15;;;6.10;90.30;;;;;;5001393;28;20054;-93
2022/01/09 00:19:57;;;;;;;5.50;4.90;;;6.20;90.30;;;;;;4998780;28;20496;-92
2022/01/09 00:22:34;;;;;;;5.15;4.22;;;6.20;90.60;;;;;;4997900;28;20064;-92
2022/01/09 00:25:00;;;;;;;4.30;3.83;;;6.20;90.30;;;;;;4983448;28;20843;-92
2022/01/09 00:27:25;;;;;;;4.40;4.00;;;6.20;90.30;;;;;;4982533;28;20026;-92
2022/01/09 00:29:51;;;;;;;4.05;3.65;;;6.20;90.30;;;;;;4980926;28;20585;-92
2022/01/09 00:32:17;;;;;;;5.30;4.75;;;6.20;90.30;;;;;;4995578;28;20030;-87
2022/01/09 00:34:43;;;;;;;4.63;4.13;;;6.20;90.20;;;;;;4965303;28;20022;-88
2022/01/09 00:37:08;;;;;;;5.10;4.18;;;6.20;90.20;;;;;;4964549;28;20033;-88
2022/01/09 00:39:34;;;;;;;4.80;4.35;;;6.20;90.20;;;;;;4962282;28;20545;-88
2022/01/09 00:42:00;;;;;;;4.93;4.03;;;6.20;90.20;;;;;;4998235;28;20378;-92
2022/01/09 00:44:25;;;;;;;3.85;3.55;;;6.20;90.20;;;;;;4967967;28;20030;-93
2022/01/09 00:46:51;;;;;;;4.07;3.67;;;6.20;90.20;;;;;;4975780;28;20025;-88
2022/01/09 00:49:16;;;;;;;4.25;3.85;;;6.20;90.20;;;;;;4963943;28;20026;-87
2022/01/09 00:51:42;;;;;;;4.40;4.00;;;6.20;90.20;;;;;;4996979;28;20054;-92
2022/01/09 00:54:08;;;;;;;4.00;3.50;;;6.30;90.10;;;;;;4971225;28;20033;-92
2022/01/09 00:56:34;;;;;;;5.38;4.30;;;6.30;90.10;;;;;;4983005;28;20026;-91
2022/01/09 00:58:59;;;;;;;4.50;4.10;;;6.30;90.10;;;;;;4997626;28;20050;-88
2022/01/09 01:01:25;;;;;;;4.75;4.35;;;6.30;90.10;;;;;;4963773;28;20401;-87
2022/01/09 01:03:51;;;;;;;4.60;4.03;;;6.20;90.10;;;;;;4963571;28;20426;-88
2022/01/09 01:06:16;;;;;;;4.43;4.03;;;6.20;90.10;;;;;;4964407;28;20083;-88
2022/01/09 01:08:42;;;;;;;4.82;4.35;;;6.20;90.10;;;;;;4979179;28;20041;-93
2022/01/09 01:11:09;;;;;;;5.10;4.60;;;6.30;90.10;;;;;;4964023;28;20485;-87
2022/01/09 01:13:35;;;;;;;7.13;5.47;;;6.30;90.10;;;;;;4965019;28;20038;-88
2022/01/09 01:16:01;;;;;;;7.38;5.93;;;6.30;90.10;;;;;;4997002;28;20519;-88
2022/01/09 01:18:26;;;;;;;6.95;6.03;;;6.30;90.10;;;;;;4995485;28;20405;-92
2022/01/09 01:20:52;;;;;;;5.93;5.07;;;6.30;90.10;;;;;;4997201;28;20105;-92
2022/01/09 01:23:18;;;;;;;6.00;5.28;;;6.20;90.10;;;;;;4963921;28;20026;-93
2022/01/09 01:25:50;;;;;;;4.88;4.47;;;6.20;90.20;;;;;;4996461;28;20032;-92
2022/01/09 01:28:16;;;;;;;5.32;4.85;;;6.20;90.20;;;;;;5000518;28;20123;-89
2022/01/09 01:30:42;;;;;;;4.57;4.15;;;6.20;90.30;;;;;;4983581;28;20057;-92
2022/01/09 01:33:07;;;;;;;4.80;4.30;;;6.20;90.30;;;;;;4980736;28;20045;-92
2022/01/09 01:35:33;;;;;;;4.47;3.60;;;6.20;90.30;;;;;;4979764;28;20030;-88
2022/01/09 01:37:59;;;;;;;3.55;3.25;;;6.20;90.30;;;;;;4989056;28;20025;-92
2022/01/09 01:40:25;;;;;;;3.80;3.15;;;6.20;90.30;;;;;;4992385;28;20388;-88
2022/01/09 01:42:50;;;;;;;3.60;3.30;;;6.20;90.40;;;;;;4977251;28;20058;-87
2022/01/09 01:45:16;;;;;;;3.50;2.70;;;6.20;90.50;;;;;;4979837;28;20037;-88
2022/01/09 01:47:42;;;;;;;7.05;2.70;;;6.20;90.60;;;;;;4994877;28;20057;-88
2022/01/09 01:50:12;;;;;;;4.20;2.42;;;6.20;90.70;;;;;;4978882;28;20144;-88
2022/01/09 01:52:42;;;;;;;7.28;2.30;;;6.20;90.80;;;;;;4994641;28;20133;-88
2022/01/09 01:55:10;;;;;;;8.63;2.17;;;6.20;90.80;;;;;;4994963;28;20092;-88
2022/01/09 01:57:38;;;;;;;7.10;1.60;;;6.20;90.80;;;;;;4985962;28;20460;-90
2022/01/09 02:00:06;;;;;;;12.13;2.10;;;6.20;90.80;;;;;;4992685;28;20748;-90
2022/01/09 02:02:32;;;;;;;13.48;2.53;;;6.20;90.70;;;;;;4986301;28;20036;-90
2022/01/09 02:04:58;;;;;;;10.02;1.92;;;6.20;90.70;;;;;;4978953;28;20093;-91
2022/01/09 02:07:25;;;;;;;14.88;2.75;;;6.20;91.00;;;;;;4979625;28;20084;-91
2022/01/09 02:09:51;;;;;;;19.30;2.83;;;6.20;90.80;;;;;;4979009;28;20026;-90
2022/01/09 02:12:17;;;;;;;19.98;3.03;;;6.20;90.90;;;;;;4979015;28;20038;-90
2022/01/09 02:14:46;;;;;;;17.73;2.60;;;6.30;90.90;;;;;;4963514;28;20037;-90
2022/01/09 02:17:16;;;;;;;18.52;2.85;;;6.30;90.90;;;;;;4978416;28;20046;-90
2022/01/09 02:20:09;;;;;;;20.30;3.25;;;6.40;91.20;;;;;;4982920;28;20023;-90
2022/01/09 02:22:35;;;;;;;11.95;2.50;;;6.40;91.00;;;;;;4961842;28;20075;-90
2022/01/09 02:25:01;;;;;;;12.20;2.88;;;6.40;91.00;;;;;;4995085;28;20034;-90
2022/01/09 02:27:26;;;;;;;15.38;4.00;;;6.40;91.00;;;;;;4983382;28;20038;-90
2022/01/09 02:29:52;;;;;;;22.33;4.90;;;6.40;91.00;;;;;;4979149;28;20394;-90
2022/01/09 02:32:17;;;;;;;30.40;4.28;;;6.40;91.10;;;;;;4974308;28;20706;-89
2022/01/09 02:34:50;;;;;;;26.38;4.50;;;6.50;91.20;;;;;;4994334;28;20030;-89
2022/01/09 02:37:16;;;;;;;;;;;6.50;91.30;;;;;;4987579;28;20073;-89
2022/01/09 02:39:42;;;;;;;31.80;4.00;;;6.50;91.30;;;;;;4994577;28;19944;-90
2022/01/09 02:42:24;;;;;;;37.17;4.70;;;6.50;91.40;;;;;;4974108;28;20050;-89
2022/01/09 02:44:50;;;;;;;31.67;4.60;;;6.50;91.50;;;;;;4991012;28;20025;-90
2022/01/09 02:47:16;;;;;;;24.92;4.32;;;6.50;91.50;;;;;;5009997;28;20058;-90
2022/01/09 02:49:47;;;;;;;27.85;4.57;;;6.60;91.50;;;;;;4962357;28;20026;-89
2022/01/09 02:52:26;;;;;;;26.23;4.78;;;6.60;91.50;;;;;;4993501;28;20026;-89
2022/01/09 02:57:36;;;;;;;31.77;4.38;;;6.70;91.50;;;;;;4999222;28;20115;-89
2022/01/09 03:00:05;;;;;;;28.05;4.55;;;6.70;91.50;;;;;;4978135;28;20510;-89
2022/01/09 03:02:31;;;;;;;25.40;4.60;;;6.70;91.50;;;;;;5001900;28;20025;-90
2022/01/09 03:04:56;;;;;;;22.40;4.78;;;6.70;91.40;;;;;;4993435;28;20041;-87
2022/01/09 03:07:22;;;;;;;36.47;5.72;;;6.70;91.40;;;;;;4985096;28;20036;-87
2022/01/09 03:09:47;;;;;;;37.90;5.82;;;6.70;91.40;;;;;;4993384;28;20038;-87
2022/01/09 03:12:13;;;;;;;35.50;6.07;;;6.70;91.40;;;;;;4960880;28;20034;-87
2022/01/09 03:14:39;;;;;;;31.80;4.63;;;6.80;91.40;;;;;;4993339;28;20030;-87
2022/01/09 03:17:04;;;;;;;30.73;5.22;;;6.70;91.30;;;;;;4982987;28;20108;-87
2022/01/09 03:19:30;;;;;;;22.98;4.03;;;6.80;91.30;;;;;;4994811;28;20083;-90
2022/01/09 03:21:56;;;;;;;25.85;4.70;;;6.80;91.30;;;;;;4983868;28;20040;-90
2022/01/09 03:24:21;;;;;;;23.42;4.15;;;6.80;91.20;;;;;;5000766;28;20540;-90
2022/01/09 03:26:47;;;;;;;37.97;5.57;;;6.80;91.20;;;;;;5000941;28;20550;-90
2022/01/09 03:29:13;;;;;;;29.27;4.18;;;6.80;91.10;;;;;;4984699;28;20032;-90
2022/01/09 03:31:38;;;;;;;27.90;3.90;;;6.80;91.10;;;;;;5000085;28;20062;-90
2022/01/09 03:34:04;;;;;;;24.90;4.65;;;6.80;91.10;;;;;;4968097;28;20037;-90
2022/01/09 03:36:30;;;;;;;23.60;4.60;;;6.80;91.10;;;;;;4980618;28;20077;-89
2022/01/09 03:38:55;;;;;;;32.60;4.65;;;6.80;91.00;;;;;;4981418;28;20029;-90
2022/01/09 03:41:21;;;;;;;33.83;4.90;;;6.80;91.00;;;;;;4972242;28;20036;-90
2022/01/09 03:43:47;;;;;;;29.50;4.38;;;6.80;90.90;;;;;;4989903;28;20515;-89
2022/01/09 03:46:12;;;;;;;27.55;5.65;;;6.80;90.90;;;;;;4999819;28;20152;-89
2022/01/09 03:48:38;;;;;;;29.05;4.13;;;6.80;90.90;;;;;;4983737;28;20036;-89
2022/01/09 03:51:04;;;;;;;34.20;4.07;;;6.80;90.80;;;;;;4982364;28;20034;-89
2022/01/09 03:53:32;;;;;;;23.00;3.95;;;6.80;90.80;;;;;;4967326;28;20480;-87
2022/01/09 03:55:58;;;;;;;28.33;4.85;;;6.80;90.80;;;;;;5017040;28;20030;-86
2022/01/09 03:58:24;;;;;;;23.48;4.75;;;6.80;90.80;;;;;;4999229;28;20014;-87
2022/01/09 04:00:50;;;;;;;26.35;4.15;;;6.80;90.80;;;;;;4979349;28;20048;-90
2022/01/09 04:03:16;;;;;;;23.95;4.38;;;6.80;90.80;;;;;;4983539;28;20029;-89
2022/01/09 04:05:42;;;;;;;28.98;4.75;;;6.80;90.70;;;;;;5016376;28;20033;-89
2022/01/09 04:08:08;;;;;;;19.50;3.60;;;6.80;90.60;;;;;;4975483;28;20037;-89
2022/01/09 04:10:40;;;;;;;22.55;4.05;;;6.80;90.50;;;;;;4994530;28;20026;-90
2022/01/09 04:13:06;;;;;;;20.48;3.90;;;6.80;90.50;;;;;;4982912;28;20034;-90
2022/01/09 04:15:32;;;;;;;23.42;4.43;;;6.70;90.30;;;;;;4983621;28;20026;-90
2022/01/09 04:17:59;;;;;;;22.33;3.38;;;6.80;90.40;;;;;;4998352;28;20129;-87
2022/01/09 04:20:30;;;;;;;21.85;3.00;;;6.70;90.30;;;;;;4988631;28;20018;-87
2022/01/09 04:22:56;;;;;;;20.95;3.88;;;6.70;90.30;;;;;;4996169;28;20038;-87
2022/01/09 04:25:22;;;;;;;20.45;2.90;;;6.70;90.30;;;;;;4982545;28;20033;-86
2022/01/09 04:27:50;;;;;;;27.50;4.05;;;6.70;90.20;;;;;;4978819;28;20033;-87
2022/01/09 04:30:17;;;;;;;17.45;3.33;;;6.70;90.50;;;;;;4996091;28;20034;-89
2022/01/09 04:32:43;;;;;;;18.02;3.15;;;6.70;90.20;;;;;;4980018;28;20057;-90
2022/01/09 04:35:09;;;;;;;18.08;3.70;;;6.70;90.20;;;;;;5013759;28;20560;-89
2022/01/09 04:37:36;;;;;;;17.92;3.55;;;6.80;90.20;;;;;;4980059;28;20030;-89
2022/01/09 04:40:04;;;;;;;22.20;3.65;;;6.70;90.10;;;;;;4977101;28;20054;-87
2022/01/09 04:42:38;;;;;;;27.13;3.60;;;6.80;90.00;;;;;;4997869;28;20034;-87
2022/01/09 04:45:06;;;;;;;18.13;3.53;;;6.70;90.00;;;;;;4986172;28;20397;-87
2022/01/09 04:47:31;;;;;;;21.63;3.30;;;6.70;90.00;;;;;;4995050;28;20018;-87
2022/01/09 04:49:59;;;;;;;20.67;3.00;;;6.70;90.00;;;;;;4976081;28;20109;-87
2022/01/09 04:52:29;;;;;;;16.67;2.63;;;6.70;89.60;;;;;;5002276;28;20030;-87
2022/01/09 04:54:54;;;;;;;21.35;3.63;;;6.70;89.60;;;;;;4990485;28;20022;-87
2022/01/09 04:57:23;;;;;;;22.73;4.25;;;6.70;89.30;;;;;;4977450;28;20022;-87
2022/01/09 04:59:49;;;;;;;27.25;3.53;;;6.80;89.20;;;;;;4958671;28;20034;-87
2022/01/09 05:02:15;;;;;;;19.95;3.00;;;6.70;88.80;;;;;;4984793;28;20033;-87
2022/01/09 05:04:40;;;;;;;23.83;3.58;;;6.70;88.80;;;;;;4960044;28;20422;-87
2022/01/09 05:07:06;;;;;;;15.88;2.92;;;6.70;88.60;;;;;;4993664;28;20108;-87
2022/01/09 05:09:32;;;;;;;18.08;3.10;;;6.70;88.40;;;;;;4980613;28;20041;-87
2022/01/09 05:11:58;;;;;;;20.65;2.78;;;6.60;88.30;;;;;;4979839;28;20082;-87
2022/01/09 05:14:24;;;;;;;23.05;3.78;;;6.60;88.00;;;;;;4984701;28;20022;-87
2022/01/09 05:16:50;;;;;;;23.75;3.90;;;6.70;88.10;;;;;;4986582;28;20092;-87
2022/01/09 05:19:19;;;;;;;24.60;4.07;;;6.70;88.00;;;;;;4986069;28;20049;-87
2022/01/09 05:21:46;;;;;;;18.52;2.63;;;6.70;88.00;;;;;;4999376;28;20037;-87
2022/01/09 05:24:12;;;;;;;21.38;3.40;;;6.60;88.10;;;;;;4995035;28;20551;-87
2022/01/09 05:26:38;;;;;;;22.35;3.97;;;6.70;88.10;;;;;;4978076;28;20022;-86
2022/01/09 05:29:03;;;;;;;15.07;3.72;;;6.60;88.00;;;;;;4978494;28;20512;-87
2022/01/09 05:31:29;;;;;;;14.73;2.65;;;6.60;88.10;;;;;;4961649;28;20068;-87
2022/01/09 05:33:55;;;;;;;21.25;3.15;;;6.60;88.10;;;;;;4978192;28;20038;-87
2022/01/09 05:36:20;;;;;;;19.70;2.85;;;6.60;87.90;;;;;;4980492;28;20077;-87
2022/01/09 05:38:46;;;;;;;19.48;3.20;;;6.60;87.50;;;;;;4975539;28;20033;-87
2022/01/09 05:41:12;;;;;;;14.80;3.38;;;6.60;87.40;;;;;;4977912;28;20022;-87
2022/01/09 05:43:39;;;;;;;22.23;3.25;;;6.60;87.40;;;;;;4977120;28;20034;-87
2022/01/09 05:46:05;;;;;;;17.25;3.13;;;6.60;87.10;;;;;;4986378;28;20046;-87
2022/01/09 05:48:31;;;;;;;22.48;3.00;;;6.60;87.10;;;;;;5006708;28;20026;-87
2022/01/09 05:50:57;;;;;;;15.95;2.83;;;6.60;86.90;;;;;;4989851;28;20444;-88
2022/01/09 05:53:22;;;;;;;23.02;3.67;;;6.60;86.90;;;;;;4987217;28;20512;-88
2022/01/09 05:55:48;;;;;;;21.67;3.47;;;6.60;86.50;;;;;;4960525;28;20116;-91
2022/01/09 05:58:14;;;;;;;21.95;3.22;;;6.60;86.50;;;;;;4978339;28;20034;-90
2022/01/09 06:00:40;;;;;;;21.00;3.65;;;6.60;86.50;;;;;;4978467;28;20030;-90
2022/01/09 06:03:05;;;;;;;19.45;2.85;;;6.60;86.10;;;;;;4987208;28;20170;-90
2022/01/09 06:05:31;;;;;;;16.85;2.92;;;6.50;86.20;;;;;;4979434;28;20030;-91
2022/01/09 06:07:57;;;;;;;17.70;3.67;;;6.50;86.20;;;;;;4994759;28;20037;-90
2022/01/09 06:10:23;;;;;;;22.02;3.78;;;6.50;86.30;;;;;;4966149;28;20447;-90
2022/01/09 06:12:48;;;;;;;10.18;2.92;;;6.50;86.80;;;;;;4987417;28;20030;-90
2022/01/09 06:15:14;;;;;;;14.65;2.83;;;6.50;86.10;;;;;;4994750;28;20030;-90
2022/01/09 06:17:42;;;;;;;21.52;3.40;;;6.50;86.30;;;;;;4978621;28;20034;-91
2022/01/09 06:20:11;;;;;;;19.25;3.50;;;6.50;86.10;;;;;;4994376;28;20137;-90
2022/01/09 06:22:36;;;;;;;15.10;3.55;;;6.50;86.20;;;;;;5012219;28;20026;-90
2022/01/09 06:25:03;;;;;;;14.57;2.42;;;6.50;86.20;;;;;;4977127;28;20034;-91
2022/01/09 06:27:29;;;;;;;17.02;2.92;;;6.50;86.40;;;;;;4977395;28;20053;-90
2022/01/09 06:29:54;;;;;;;22.00;3.05;;;6.60;86.40;;;;;;4994286;28;20034;-91
2022/01/09 06:32:20;;;;;;;19.15;3.17;;;6.60;86.30;;;;;;4974585;28;20034;-91
2022/01/09 06:34:46;;;;;;;13.07;3.40;;;6.50;86.30;;;;;;4990151;28;20108;-90
2022/01/09 06:37:12;;;;;;;20.65;3.88;;;6.50;86.20;;;;;;4976379;28;20105;-91
2022/01/09 06:39:39;;;;;;;13.52;2.78;;;6.50;86.30;;;;;;4988667;28;20106;-90
2022/01/09 06:42:05;;;;;;;14.93;2.53;;;6.50;86.90;;;;;;4992537;28;20045;-91
2022/01/09 06:44:31;;;;;;;12.48;2.40;;;6.50;86.20;;;;;;4977355;28;20480;-90
2022/01/09 06:46:56;;;;;;;15.10;2.13;;;6.50;86.20;;;;;;4974321;28;20134;-90
2022/01/09 06:49:22;;;;;;;13.60;2.25;;;6.50;86.00;;;;;;4980057;28;20049;-90
2022/01/09 06:51:48;;;;;;;12.38;2.20;;;6.50;85.80;;;;;;4978762;28;20026;-87
2022/01/09 06:54:13;;;;;;;11.52;2.00;;;6.50;85.60;;;;;;4984833;28;20030;-91
2022/01/09 06:56:40;;;;;;;11.52;2.30;;;6.50;85.80;;;;;;4996857;28;20030;-90
2022/01/09 06:59:06;;;;;;;14.68;2.30;;;6.40;85.30;;;;;;4980165;28;20508;-91
2022/01/09 07:01:31;;;;;;;11.88;2.60;;;6.40;85.50;;;;;;4987687;28;20040;-90
2022/01/09 07:03:57;;;;;;;15.90;2.70;;;6.40;85.30;;;;;;5007350;28;20066;-90
2022/01/09 07:06:23;;;;;;;13.63;2.80;;;6.40;85.40;;;;;;5001342;28;20725;-90
2022/01/09 07:08:48;;;;;;;16.48;2.70;;;6.40;85.10;;;;;;5003398;28;20079;-90
2022/01/09 07:11:14;;;;;;;13.50;2.30;;;6.40;85.30;;;;;;4983969;28;20057;-89
2022/01/09 07:13:40;;;;;;;13.10;2.38;;;6.30;85.40;;;;;;5000780;28;20026;-90
2022/01/09 07:16:06;;;;;;;14.38;2.22;;;6.30;85.50;;;;;;5002328;28;20395;-90
2022/01/09 07:18:32;;;;;;;17.25;2.67;;;6.30;85.50;;;;;;5001640;28;20037;-90
2022/01/09 07:20:58;;;;;;;12.82;2.83;;;6.30;85.40;;;;;;4996299;28;20033;-90
2022/01/09 07:23:23;;;;;;;10.50;2.22;;;6.30;84.90;;;;;;4985947;28;20040;-90
2022/01/09 07:25:49;;;;;;;15.18;2.40;;;6.30;85.10;;;;;;4984146;28;20096;-90
2022/01/09 07:28:15;;;;;;;18.45;2.63;;;6.30;85.00;;;;;;5003012;28;20037;-90
2022/01/09 07:30:41;;;;;;;12.98;3.03;;;6.30;84.90;;;;;;5023761;28;20034;-90
2022/01/09 07:33:07;;;;;;;13.32;2.22;;;6.30;84.80;;;;;;4984990;28;20073;-90
2022/01/09 07:35:33;;;;;;;9.82;1.75;;;6.30;84.80;;;;;;4983150;28;20018;-90
2022/01/09 07:37:59;;;;;;;12.00;3.08;;;6.20;84.80;;;;;;5015265;28;20083;-89
2022/01/09 07:40:25;;;;;;;13.43;2.25;;;6.20;85.00;;;;;;5019987;28;20025;-90
2022/01/09 07:42:51;;;;;;;16.20;2.55;;;6.20;85.00;;;;;;4978440;28;20484;-87
2022/01/09 07:45:22;;;;;;;13.18;2.20;;;6.20;85.10;;;;;;4976298;28;20034;-86
2022/01/09 07:47:48;;;;;;;11.73;2.20;;;6.20;85.30;;;;;;4976560;28;20030;-86
2022/01/09 07:50:14;;;;;;;9.20;2.78;;;6.20;85.40;;;;;;4976466;28;20032;-90
2022/01/09 07:52:40;;;;;;;9.00;2.10;;;6.20;85.50;;;;;;4992702;28;20489;-90
2022/01/09 07:55:07;;;;;;;9.80;2.15;;;6.30;85.60;;;;;;4993669;28;20041;-90
2022/01/09 07:57:33;;;;;;;8.23;2.38;;;6.30;85.50;;;;;;5010930;28;20022;-90
2022/01/09 08:00:02;;;;;;;17.25;2.28;;;6.30;85.60;;;;;;4975872;28;20018;-86
2022/01/09 08:02:27;;;;;;;10.95;2.83;;;6.30;85.50;;;;;;4978705;28;20413;-90
2022/01/09 08:04:53;;;;;;;9.00;2.58;;;6.30;85.50;;;;;;4981263;28;20034;-90
2022/01/09 08:07:19;;;;;;;12.65;2.28;;;6.30;85.50;;;;;;4980977;28;20485;-90
2022/01/09 08:09:45;;;;;;;16.77;4.30;;;6.20;85.40;;;;;;4981378;28;20037;-90
2022/01/09 08:12:14;;;;;;;11.57;2.67;;;6.20;85.50;;;;;;4997057;28;20124;-91
2022/01/09 08:14:40;;;;;;;10.75;2.20;;;6.20;85.40;;;;;;4981563;28;20029;-90
2022/01/09 08:17:06;;;;;;;13.57;2.30;;;6.20;85.30;;;;;;4982276;28;20084;-91
2022/01/09 08:19:32;;;;;;;12.93;2.53;;;6.20;85.30;;;;;;4994498;28;20037;-91
2022/01/09 08:21:58;;;;;;;8.48;2.00;;;6.20;85.20;;;;;;4983566;28;20062;-90
2022/01/09 08:24:24;;;;;;;9.25;1.80;;;6.20;85.20;;;;;;4996761;28;20033;-90
2022/01/09 08:26:50;;;;;;;14.85;2.13;;;6.20;85.10;;;;;;5010935;28;20030;-88
2022/01/09 08:29:16;;;;;;;10.35;2.00;;;6.20;84.90;;;;;;4996418;28;20478;-89
2022/01/09 08:31:42;;;;;;;11.07;1.73;;;6.10;84.80;;;;;;4996754;28;20121;-88
2022/01/09 08:34:08;;;;;;;9.88;2.30;;;6.10;84.50;;;;;;4981118;28;20065;-88
2022/01/09 08:36:33;;;;;;;9.48;2.17;;;6.10;84.50;;;;;;4986802;28;20064;-87
2022/01/09 08:38:59;;;;;;;10.55;2.58;;;6.10;84.40;;;;;;4985290;28;20026;-88
2022/01/09 08:41:25;;;;;;;6.82;1.75;;;6.10;84.40;;;;;;5003543;28;20026;-87
2022/01/09 08:43:51;;;;;;;10.07;2.72;;;6.10;84.50;;;;;;4994491;28;20054;-88
2022/01/09 08:46:17;;;;;;;13.05;2.03;;;6.10;84.30;;;;;;4991006;28;20033;-89
2022/01/09 08:48:42;;;;;;;13.88;2.00;;;6.10;84.40;;;;;;4996113;28;20460;-89
2022/01/09 08:51:08;;;;;;;13.02;1.98;;;6.00;84.20;;;;;;4982213;28;20092;-89
2022/01/09 08:53:38;;;;;;;12.00;2.05;;;6.00;84.20;;;;;;4979710;28;20026;-89
2022/01/09 08:56:05;;;;;;;10.00;1.88;;;6.00;84.30;;;;;;4985445;28;20462;-89
2022/01/09 08:58:31;;;;;;;8.10;2.00;;;6.00;84.20;;;;;;4989898;28;20034;-89
2022/01/09 09:00:57;;;;;;;11.15;3.05;;;6.00;84.30;;;;;;4995796;28;20053;-90
2022/01/09 09:03:23;;;;;;;12.50;2.25;;;6.00;84.00;;;;;;4995589;28;20025;-89
2022/01/09 09:05:49;;;;;;;7.57;2.08;;;6.00;83.90;;;;;;4984922;28;20030;-89
2022/01/09 09:08:15;;;;;;;9.57;2.10;;;6.00;84.10;;;;;;4989003;28;20069;-90
2022/01/09 09:10:41;;;;;;;10.48;2.40;;;6.00;84.20;;;;;;4983236;28;20096;-89
2022/01/09 09:13:06;;;;;;;8.68;1.85;;;6.00;84.20;;;;;;4998346;28;20029;-90
2022/01/09 09:15:32;;;;;;;9.55;2.10;;;6.00;84.20;;;;;;5003801;28;20080;-90
2022/01/09 09:17:58;;;;;;;8.90;1.80;;;6.00;84.10;;;;;;4984048;28;20034;-89
2022/01/09 09:20:24;;;;;;;15.65;2.13;;;6.00;83.90;;;;;;4983175;28;20032;-89
2022/01/09 09:22:51;;;;;;;7.80;1.75;;;6.00;83.90;;;;;;5012683;28;20034;-89
2022/01/09 09:25:17;;;;;;;10.20;1.63;;;6.10;83.70;;;;;;5006915;28;20033;-89
2022/01/09 09:27:43;;;;;;;12.15;1.90;;;6.10;83.70;;;;;;4987690;28;20034;-89
2022/01/09 09:30:10;;;;;;;10.02;1.95;;;6.20;83.80;;;;;;5005227;28;20507;-88
2022/01/09 09:32:37;;;;;;;4.07;1.80;;;6.20;83.70;;;;;;5012037;28;20038;-90
2022/01/09 09:35:04;;;;;;;10.20;1.60;;;6.30;83.80;;;;;;4978376;28;20577;-89
2022/01/09 09:37:30;;;;;;;10.43;2.15;;;6.40;83.70;;;;;;4962627;28;20030;-89
2022/01/09 09:39:56;;;;;;;11.68;2.10;;;6.40;83.20;;;;;;4978900;28;20407;-89
2022/01/09 09:42:21;;;;;;;10.43;2.05;;;6.40;82.90;;;;;;4994382;28;20040;-89
2022/01/09 09:44:47;;;;;;;7.85;2.03;;;6.40;83.20;;;;;;4975018;28;20038;-89
2022/01/09 09:47:16;;;;;;;9.32;1.73;;;6.40;83.20;;;;;;4996479;28;20374;-89
2022/01/09 09:49:42;;;;;;;7.80;1.70;;;6.40;83.50;;;;;;5003878;28;20029;-89
2022/01/09 09:52:08;;;;;;;8.80;2.15;;;6.50;83.60;;;;;;4978785;28;20034;-89
2022/01/09 09:54:33;;;;;;;10.93;2.30;;;6.40;83.60;;;;;;4978077;28;20022;-89
2022/01/09 09:56:59;;;;;;;9.60;1.85;;;6.50;83.90;;;;;;4995881;28;20439;-89
2022/01/09 09:59:28;;;;;;;10.60;1.67;;;6.50;83.80;;;;;;5000032;28;20025;-89
2022/01/09 10:01:54;;;;;;;11.57;1.88;;;6.50;83.90;;;;;;4993815;28;20033;-89
2022/01/09 10:04:20;;;;;;;7.65;1.77;;;6.50;83.60;;;;;;4961684;28;20547;-89
2022/01/09 10:06:48;;;;;;;12.20;2.58;;;6.50;83.50;;;;;;4968836;28;20037;-89
2022/01/09 10:09:17;;;;;;;9.60;2.38;;;6.50;83.40;;;;;;4992889;28;20247;-89
2022/01/09 10:11:44;;;;;;;10.07;2.70;;;6.50;83.30;;;;;;4994066;28;20026;-89
2022/01/09 10:14:19;;;;;;;11.38;2.70;;;6.50;83.40;;;;;;5016522;28;20041;-89
2022/01/09 10:17:11;;;;;;;12.32;2.90;;;6.60;83.20;;;;;;5011498;28;20030;-89
2022/01/09 10:19:41;;;;;;;13.20;2.20;;;6.70;82.90;;;;;;5002863;28;20070;-89
2022/01/09 10:22:07;;;;;;;11.40;2.50;;;6.80;82.30;;;;;;4990679;28;20277;-89
2022/01/09 10:24:32;;;;;;;13.23;1.98;;;6.70;82.40;;;;;;4991431;28;20037;-90
2022/01/09 10:26:58;;;;;;;10.85;2.20;;;6.70;82.30;;;;;;4975194;28;20389;-89
2022/01/09 10:29:30;;;;;;;9.88;1.80;;;6.70;82.40;;;;;;4964244;28;20034;-89
2022/01/09 10:31:56;;;;;;;10.60;1.83;;;6.70;82.10;;;;;;4994182;28;20575;-89
2022/01/09 10:34:22;;;;;;;9.77;2.33;;;6.70;82.00;;;;;;4965619;28;20033;-89
2022/01/09 10:36:51;;;;;;;8.02;1.70;;;6.70;81.70;;;;;;4978078;28;20030;-89
2022/01/09 10:39:24;;;;;;;7.85;1.73;;;6.70;81.90;;;;;;4990384;28;20553;-88
2022/01/09 10:41:58;;;;;;;14.48;1.98;;;6.70;82.30;;;;;;5000585;28;20026;-89
2022/01/09 10:44:44;;;;;;;9.30;1.92;;;6.70;82.70;;;;;;4992802;28;20030;-89
2022/01/09 10:47:14;;;;;;;9.40;1.85;;;6.80;83.00;;;;;;4992936;28;20092;-89
2022/01/09 10:49:44;;;;;;;10.38;2.28;;;6.80;83.30;;;;;;4976111;28;20042;-89
2022/01/09 10:52:26;;;;;;;13.07;2.92;;;6.80;83.40;;;;;;5009962;28;20091;-89
2022/01/09 10:54:55;;;;;;;12.35;2.35;;;6.80;83.40;;;;;;4975806;28;20120;-89
2022/01/09 10:57:32;;;;;;;8.32;2.13;;;6.80;83.60;;;;;;4981927;28;20022;-89
2022/01/09 11:00:14;;;;;;;10.32;2.60;;;6.80;83.80;;;;;;4993208;28;20022;-89
2022/01/09 11:02:40;;;;;;;14.27;3.05;;;6.80;83.80;;;;;;4993165;28;20092;-87
2022/01/09 11:05:06;;;;;;;13.18;2.67;;;6.80;83.80;;;;;;4976829;28;20026;-88
2022/01/09 11:07:32;;;;;;;14.20;2.97;;;6.80;83.90;;;;;;4956920;28;20065;-87
2022/01/09 11:09:59;;;;;;;8.27;2.25;;;7.00;84.20;;;;;;4986214;28;20033;-87
2022/01/09 11:12:32;;;;;;;12.23;2.50;;;7.30;83.90;;;;;;4978273;28;20056;-87
2022/01/09 11:15:01;;;;;;;7.22;2.40;;;7.70;83.00;;;;;;4979463;28;20147;-89
2022/01/09 11:17:28;;;;;;;8.98;2.05;;;8.40;82.80;;;;;;5007473;28;20032;-89
2022/01/09 11:19:53;;;;;;;11.20;2.38;;;9.40;79.70;;;;;;4984674;28;20093;-90
2022/01/09 11:22:20;;;;;;;15.88;3.78;;;10.20;75.40;;;;;;4991681;28;20022;-90
2022/01/09 11:24:49;;;;;;;14.35;3.03;;;10.40;73.80;;;;;;4974880;28;20022;-89
2022/01/09 11:27:22;;;;;;;11.55;2.45;;;10.10;73.20;;;;;;5006977;28;20029;-90
2022/01/09 11:30:06;;;;;;;13.63;3.10;;;9.70;74.50;;;;;;4993674;28;20022;-89
2022/01/09 11:32:57;;;;;;;10.40;2.38;;;9.20;75.90;;;;;;5010796;28;20493;-89
2022/01/09 11:39:17;;;;;;;11.98;1.90;;;8.60;77.20;;;;;;4983876;28;20034;-87
2022/01/09 11:42:22;;;;;;;11.50;2.17;;;8.90;77.50;;;;;;5019811;28;20116;-87
2022/01/09 11:44:53;;;;;;;13.52;2.88;;;9.40;76.40;;;;;;4985126;28;20060;-88
2022/01/09 11:47:20;;;;;;;10.60;2.60;;;9.50;74.20;;;;;;5013629;28;20033;-88
2022/01/09 11:49:49;;;;;;;11.68;2.10;;;9.50;74.00;;;;;;4997499;28;20801;-88
2022/01/09 11:52:15;;;;;;;10.13;2.15;;;10.50;71.20;;;;;;4997289;28;20060;-88
2022/01/09 11:55:05;;;;;;;8.30;2.30;;;11.00;68.60;;;;;;4981830;28;20034;-88
2022/01/09 11:57:43;;;;;;;9.40;2.17;;;11.70;68.30;;;;;;4952454;28;20025;-90
2022/01/09 12:00:45;;;;;;;9.38;1.95;;;12.70;65.90;;;;;;4992921;28;20037;-90
2022/01/09 12:03:26;;;;;;;8.65;2.13;;;13.50;59.40;;;;;;4997541;28;20568;-91
2022/01/09 12:06:05;;;;;;;7.93;2.10;;;14.00;60.00;;;;;;4995060;28;20107;-90
2022/01/09 12:08:53;;;;;;;7.93;2.00;;;14.90;58.20;;;;;;4997446;28;20034;-90
2022/01/09 12:11:19;;;;;;;5.00;1.88;;;15.70;54.50;;;;;;4981972;28;20075;-90
2022/01/09 12:13:47;;;;;;;10.02;2.05;;;15.80;53.30;;;;;;4980802;28;20030;-89
2022/01/09 12:16:46;;;;;;;6.35;2.05;;;15.90;52.90;;;;;;4988212;28;20456;-90
2022/01/09 12:19:11;;;;;;;7.28;1.90;;;16.00;52.80;;;;;;5014343;28;20037;-89
2022/01/09 12:21:37;;;;;;;8.38;2.20;;;16.30;52.50;;;;;;4980725;28;20084;-90
2022/01/09 12:24:38;;;;;;;7.85;1.88;;;15.90;50.60;;;;;;4996495;28;20022;-90
2022/01/09 12:27:34;;;;;;;9.00;2.05;;;15.00;52.60;;;;;;4996148;28;20481;-90
2022/01/09 12:30:00;;;;;;;8.07;2.50;;;14.60;53.90;;;;;;4996242;28;20095;-90
2022/01/09 12:32:43;;;;;;;9.10;2.42;;;14.70;54.00;;;;;;4979959;28;20066;-90
2022/01/09 12:35:19;;;;;;;11.93;2.20;;;14.70;54.00;;;;;;4980407;28;20050;-90
2022/01/09 12:37:54;;;;;;;11.35;2.53;;;14.10;54.70;;;;;;4995870;28;20022;-90
2022/01/09 12:40:22;;;;;;;9.30;1.83;;;13.30;56.70;;;;;;5005276;28;20017;-89
2022/01/09 12:42:50;;;;;;;7.72;1.75;;;12.50;58.20;;;;;;4980362;28;20473;-89
2022/01/09 12:45:24;;;;;;;7.50;1.90;;;12.30;60.60;;;;;;4993889;28;20026;-90
2022/01/09 12:47:49;;;;;;;9.40;2.20;;;12.80;59.80;;;;;;4996196;28;20061;-90
2022/01/09 12:50:16;;;;;;;14.52;2.90;;;13.40;58.50;;;;;;4997401;28;20084;-90
2022/01/09 12:52:42;;;;;;;7.88;1.90;;;13.30;57.80;;;;;;4980952;28;20121;-90
2022/01/09 12:55:11;;;;;;;7.88;1.83;;;13.10;57.60;;;;;;4997162;28;20121;-90
2022/01/09 12:57:54;;;;;;;8.20;2.10;;;12.80;59.10;;;;;;5014147;28;20370;-90
2022/01/09 13:00:29;;;;;;;7.75;1.63;;;12.50;60.20;;;;;;5014020;28;20029;-90